createdAt,value
2019-04-16T00:00:57.992Z,42.98
2019-04-16T00:03:04.740Z,43.22
2019-04-16T00:05:11.283Z,43.45
2019-04-16T00:07:33.909Z,43.52
2019-04-16T00:09:52.654Z,43.71
2019-04-16T00:12:16.996Z,43.71
2019-04-16T00:14:28.265Z,44.14
2019-04-16T00:16:35.005Z,44.26
2019-04-16T00:18:41.742Z,44.51
2019-04-16T00:21:06.506Z,44.72
2019-04-16T00:23:19.242Z,44.91
2019-04-16T00:25:26.010Z,44.87
2019-04-16T00:27:32.840Z,45.33
2019-04-16T00:29:39.974Z,45.46
2019-04-16T00:31:48.324Z,45.68
2019-04-16T00:33:55.101Z,45.92
2019-04-16T00:36:01.840Z,46.20
2019-04-16T00:38:08.632Z,46.41
2019-04-16T00:40:15.419Z,46.62
2019-04-16T00:42:22.168Z,46.72
2019-04-16T00:44:29.017Z,47.04
2019-04-16T00:46:35.784Z,46.97
2019-04-16T00:48:42.439Z,47.05
2019-04-16T00:50:49.117Z,47.41
2019-04-16T00:52:56.021Z,47.65
2019-04-16T00:55:02.752Z,47.67
2019-04-16T00:57:09.494Z,47.72
2019-04-16T00:59:16.269Z,47.98
2019-04-16T01:01:22.944Z,47.99
2019-04-16T01:03:29.689Z,47.98
2019-04-16T01:05:36.500Z,48.26
2019-04-16T01:07:43.152Z,48.33
2019-04-16T01:09:49.820Z,48.50
2019-04-16T01:11:56.699Z,48.64
2019-04-16T01:14:04.705Z,48.60
2019-04-16T01:16:11.455Z,48.78
2019-04-16T01:18:18.437Z,48.80
2019-04-16T01:20:25.992Z,48.84
2019-04-16T01:22:32.726Z,48.87
2019-04-16T01:24:39.773Z,49.08
2019-04-16T01:26:46.515Z,49.05
2019-04-16T01:28:54.831Z,49.26
2019-04-16T01:31:17.459Z,49.46
2019-04-16T01:33:25.764Z,49.68
2019-04-16T01:35:51.497Z,49.78
2019-04-16T01:38:16.433Z,49.98
2019-04-16T01:40:24.795Z,49.89
2019-04-16T01:42:33.506Z,50.04
2019-04-16T01:44:40.285Z,50.05
2019-04-16T01:46:47.010Z,50.36
2019-04-16T01:48:53.683Z,50.34
2019-04-16T01:51:00.482Z,50.29
2019-04-16T01:53:07.219Z,50.54
2019-04-16T01:55:13.959Z,50.69
2019-04-16T01:57:20.823Z,50.84
2019-04-16T01:59:27.948Z,50.83
2019-04-16T02:01:34.855Z,51.10
2019-04-16T02:03:41.663Z,51.10
2019-04-16T02:05:48.372Z,51.11
2019-04-16T02:07:56.381Z,51.16
2019-04-16T02:10:07.338Z,51.38
2019-04-16T02:12:13.517Z,51.47
2019-04-16T02:14:22.364Z,51.48
2019-04-16T02:16:29.740Z,51.55
2019-04-16T02:18:36.506Z,51.86
2019-04-16T02:20:43.258Z,51.67
2019-04-16T02:22:49.966Z,51.86
2019-04-16T02:24:56.706Z,52.04
2019-04-16T02:27:03.462Z,52.34
2019-04-16T02:29:10.547Z,52.05
2019-04-16T02:31:17.285Z,52.21
2019-04-16T02:33:23.940Z,52.35
2019-04-16T02:35:30.840Z,52.44
2019-04-16T02:37:37.809Z,52.52
2019-04-16T02:39:48.975Z,52.70
2019-04-16T02:41:57.090Z,52.93
2019-04-16T02:44:01.563Z,52.92
2019-04-16T02:46:08.331Z,52.92
2019-04-16T02:48:17.055Z,53.10
2019-04-16T02:50:40.239Z,53.34
2019-04-16T02:52:51.190Z,53.31
2019-04-16T02:55:14.710Z,53.31
2019-04-16T02:57:31.910Z,53.37
2019-04-16T02:59:45.929Z,53.55
2019-04-16T03:01:51.895Z,53.65
2019-04-16T03:04:03.645Z,53.68
2019-04-16T03:06:10.346Z,53.88
2019-04-16T03:08:17.082Z,53.84
2019-04-16T03:10:24.055Z,54.14
2019-04-16T03:12:30.934Z,54.05
2019-04-16T03:14:37.713Z,54.14
2019-04-16T03:16:46.021Z,54.24
2019-04-16T03:19:00.475Z,54.17
2019-04-16T03:21:07.242Z,54.26
2019-04-16T03:23:15.090Z,54.32
2019-04-16T03:25:21.800Z,54.30
2019-04-16T03:27:28.515Z,54.42
2019-04-16T03:29:35.202Z,54.66
2019-04-16T03:31:41.849Z,54.66
2019-04-16T03:33:50.898Z,54.72
2019-04-16T03:35:57.927Z,54.77
2019-04-16T03:38:06.255Z,55.06
2019-04-16T03:40:17.367Z,54.95
2019-04-16T03:42:24.501Z,55.26
2019-04-16T03:44:30.157Z,54.97
2019-04-16T03:46:39.967Z,55.03
2019-04-16T03:48:45.691Z,55.32
2019-04-16T03:50:52.408Z,55.31
2019-04-16T03:52:59.185Z,55.24
2019-04-16T03:55:06.525Z,55.17
2019-04-16T03:57:13.255Z,55.12
2019-04-16T03:59:20.086Z,55.34
2019-04-16T04:01:26.812Z,55.41
2019-04-16T04:03:33.585Z,55.60
2019-04-16T04:05:40.352Z,55.52
2019-04-16T04:07:47.085Z,55.48
2019-04-16T04:09:54.578Z,55.30
2019-04-16T04:12:02.246Z,55.47
2019-04-16T04:14:08.914Z,55.40
2019-04-16T04:16:15.674Z,55.32
2019-04-16T04:18:23.921Z,55.10
2019-04-16T04:20:31.098Z,54.90
2019-04-16T04:22:37.784Z,54.47
2019-04-16T04:24:44.484Z,54.41
2019-04-16T04:26:51.139Z,54.28
2019-04-16T04:29:25.925Z,54.14
2019-04-16T04:31:33.119Z,54.12
2019-04-16T04:33:42.556Z,53.80
2019-04-16T04:35:51.013Z,53.58
2019-04-16T04:37:56.714Z,53.20
2019-04-16T04:40:03.672Z,52.91
2019-04-16T04:42:10.416Z,52.35
2019-04-16T04:44:17.261Z,51.82
2019-04-16T04:46:24.020Z,51.29
2019-04-16T04:48:30.759Z,50.64
2019-04-16T04:50:37.611Z,47.34
2019-04-16T04:52:46.003Z,42.61
2019-04-16T04:54:54.125Z,38.54
2019-04-16T04:57:01.126Z,35.86
2019-04-16T04:59:07.882Z,34.25
2019-04-16T05:01:15.558Z,32.47
2019-04-16T05:03:40.072Z,30.86
2019-04-16T05:05:53.299Z,29.28
2019-04-16T05:08:00.634Z,27.16
2019-04-16T05:10:08.542Z,26.46
2019-04-16T05:12:17.867Z,24.85
2019-04-16T05:14:25.947Z,23.62
2019-04-16T05:16:34.520Z,22.99
2019-04-16T05:18:41.970Z,23.17
2019-04-16T05:20:49.422Z,23.35
2019-04-16T05:22:57.999Z,22.52
2019-04-16T05:25:06.973Z,21.45
2019-04-16T05:27:13.656Z,21.54
2019-04-16T05:29:20.425Z,21.74
2019-04-16T05:31:30.914Z,21.36
2019-04-16T05:33:37.521Z,21.08
2019-04-16T05:35:44.440Z,20.21
2019-04-16T05:37:52.223Z,19.87
2019-04-16T05:39:59.543Z,19.91
2019-04-16T05:42:06.512Z,19.88
2019-04-16T05:44:13.143Z,19.44
2019-04-16T05:46:19.796Z,19.41
2019-04-16T05:48:26.423Z,18.77
2019-04-16T05:50:33.161Z,18.39
2019-04-16T05:52:39.885Z,18.12
2019-04-16T05:54:51.401Z,17.24
2019-04-16T05:57:02.410Z,16.86
2019-04-16T05:59:09.239Z,16.87
2019-04-16T06:01:23.519Z,17.34
2019-04-16T06:03:30.187Z,17.14
2019-04-16T06:05:36.926Z,16.68
2019-04-16T06:07:43.627Z,15.65
2019-04-16T06:09:50.297Z,15.54
2019-04-16T06:11:56.978Z,16.13
2019-04-16T06:14:17.522Z,16.69
2019-04-16T06:16:36.307Z,16.08
2019-04-16T06:18:56.623Z,15.03
2019-04-16T06:21:25.035Z,14.23
2019-04-16T06:23:32.665Z,14.17
2019-04-16T06:25:42.236Z,14.10
2019-04-16T06:27:53.230Z,13.66
2019-04-16T06:30:16.819Z,14.73
2019-04-16T06:32:27.830Z,14.38
2019-04-16T06:34:51.421Z,13.51
2019-04-16T06:37:20.335Z,12.99
2019-04-16T06:39:38.408Z,12.97
2019-04-16T06:41:47.788Z,13.64
2019-04-16T06:43:58.344Z,15.02
2019-04-16T06:46:20.939Z,14.34
2019-04-16T06:48:46.006Z,14.51
2019-04-16T06:51:12.485Z,15.11
2019-04-16T06:53:23.822Z,14.56
2019-04-16T06:55:35.013Z,14.02
2019-04-16T06:57:44.630Z,13.73
2019-04-16T07:00:02.315Z,13.54
2019-04-16T07:02:12.050Z,13.76
2019-04-16T07:04:20.356Z,13.24
2019-04-16T07:06:43.536Z,13.61
2019-04-16T07:08:53.254Z,13.03
2019-04-16T07:11:01.611Z,13.64
2019-04-16T07:13:11.136Z,14.08
2019-04-16T07:15:22.089Z,14.83
2019-04-16T07:17:25.055Z,14.30
2019-04-16T07:19:31.725Z,13.33
2019-04-16T07:21:38.492Z,13.38
2019-04-16T07:23:47.091Z,14.22
2019-04-16T07:25:54.242Z,14.88
2019-04-16T07:28:08.810Z,15.41
2019-04-16T07:30:21.243Z,15.03
2019-04-16T07:32:32.696Z,14.25
2019-04-16T07:34:43.774Z,14.42
2019-04-16T07:36:56.638Z,15.60
2019-04-16T07:39:28.762Z,15.61
2019-04-16T07:41:23.572Z,16.09
2019-04-16T07:43:48.212Z,17.11
2019-04-16T07:46:05.930Z,18.82
2019-04-16T07:48:22.921Z,21.98
2019-04-16T07:50:46.250Z,23.97
2019-04-16T07:53:00.307Z,25.54
2019-04-16T07:55:17.910Z,27.80
2019-04-16T07:57:24.565Z,27.72
2019-04-16T07:59:32.230Z,28.02
2019-04-16T08:01:40.906Z,27.72
2019-04-16T08:03:47.555Z,27.50
2019-04-16T08:05:54.216Z,27.54
2019-04-16T08:08:00.991Z,27.26
2019-04-16T08:10:08.432Z,27.97
2019-04-16T08:12:29.261Z,27.93
2019-04-16T08:14:23.518Z,27.13
2019-04-16T08:16:30.283Z,25.88
2019-04-16T08:18:38.587Z,25.33
2019-04-16T08:20:45.352Z,25.87
2019-04-16T08:22:53.673Z,26.65
2019-04-16T08:25:03.272Z,27.13
2019-04-16T08:27:10.927Z,28.04
2019-04-16T08:29:17.735Z,27.46
2019-04-16T08:31:25.876Z,27.85
2019-04-16T08:33:32.586Z,28.87
2019-04-16T08:35:39.257Z,28.68
2019-04-16T08:37:49.128Z,28.83
2019-04-16T08:39:54.434Z,28.82
2019-04-16T08:42:01.138Z,28.85
2019-04-16T08:44:10.050Z,28.68
2019-04-16T08:46:16.275Z,28.47
2019-04-16T08:48:22.967Z,28.33
2019-04-16T08:50:29.638Z,28.37
2019-04-16T08:52:38.601Z,28.62
2019-04-16T08:54:49.963Z,28.19
2019-04-16T08:56:53.216Z,28.31
2019-04-16T08:59:01.212Z,28.35
2019-04-16T09:01:09.993Z,28.32
2019-04-16T09:03:16.705Z,27.90
2019-04-16T09:05:23.402Z,27.76
2019-04-16T09:07:42.522Z,27.57
2019-04-16T09:09:57.112Z,27.01
2019-04-16T09:12:08.002Z,27.25
2019-04-16T09:14:12.518Z,27.36
2019-04-16T09:16:19.259Z,27.53
2019-04-16T09:18:27.593Z,27.43
2019-04-16T09:20:37.755Z,27.21
2019-04-16T09:22:49.364Z,27.58
2019-04-16T09:24:57.017Z,27.27
2019-04-16T09:27:21.404Z,27.16
2019-04-16T09:29:43.111Z,27.65
2019-04-16T09:31:55.429Z,27.75
2019-04-16T09:34:19.450Z,27.89
2019-04-16T09:36:43.895Z,27.86
2019-04-16T09:38:52.234Z,28.06
2019-04-16T09:41:15.718Z,28.34
2019-04-16T09:43:33.058Z,27.87
2019-04-16T09:45:40.029Z,27.48
2019-04-16T09:47:46.695Z,26.76
2019-04-16T09:49:53.470Z,26.59
2019-04-16T09:52:00.231Z,27.05
2019-04-16T09:54:12.440Z,27.29
2019-04-16T09:56:31.355Z,26.83
2019-04-16T09:58:42.423Z,26.86
2019-04-16T10:00:48.985Z,26.57
2019-04-16T10:02:57.296Z,26.70
2019-04-16T10:05:05.369Z,26.59
2019-04-16T10:07:12.616Z,26.67
2019-04-16T10:09:21.711Z,26.42
2019-04-16T10:11:27.973Z,26.96
2019-04-16T10:13:36.275Z,27.52
2019-04-16T10:15:44.269Z,27.72
2019-04-16T10:17:50.972Z,27.92
2019-04-16T10:19:58.210Z,27.52
2019-04-16T10:22:04.897Z,28.00
2019-04-16T10:24:14.310Z,28.11
2019-04-16T10:26:21.403Z,29.02
2019-04-16T10:28:33.890Z,28.56
2019-04-16T10:30:42.868Z,28.49
2019-04-16T10:32:49.833Z,29.01
2019-04-16T10:34:56.497Z,28.91
2019-04-16T10:37:03.208Z,28.87
2019-04-16T10:39:09.733Z,29.12
2019-04-16T10:41:25.263Z,29.94
2019-04-16T10:43:49.912Z,29.74
2019-04-16T10:45:59.207Z,30.28
2019-04-16T10:48:19.680Z,30.99
2019-04-16T10:50:46.388Z,32.06
2019-04-16T10:53:03.773Z,32.15
2019-04-16T10:55:25.293Z,32.21
2019-04-16T10:57:38.481Z,32.46
2019-04-16T11:00:02.306Z,32.23
2019-04-16T11:02:10.861Z,32.76
2019-04-16T11:04:34.508Z,32.91
2019-04-16T11:06:48.696Z,33.22
2019-04-16T11:08:55.393Z,33.26
2019-04-16T11:11:04.845Z,32.72
2019-04-16T11:13:16.113Z,32.53
2019-04-16T11:15:24.480Z,32.77
2019-04-16T11:17:31.235Z,32.96
2019-04-16T11:19:37.979Z,33.01
2019-04-16T11:21:44.653Z,33.01
2019-04-16T11:23:51.366Z,33.58
2019-04-16T11:25:58.010Z,33.69
2019-04-16T11:28:04.676Z,33.35
2019-04-16T11:30:30.151Z,33.17
2019-04-16T11:32:39.938Z,33.41
2019-04-16T11:34:45.339Z,33.28
2019-04-16T11:36:52.110Z,34.10
2019-04-16T11:38:58.770Z,34.21
2019-04-16T11:41:05.508Z,34.47
2019-04-16T11:43:12.219Z,34.83
2019-04-16T11:45:20.299Z,35.91
2019-04-16T11:47:28.179Z,36.44
2019-04-16T11:49:35.240Z,37.17
2019-04-16T11:51:41.978Z,38.80
2019-04-16T11:53:48.658Z,39.72
2019-04-16T11:55:55.441Z,40.57
2019-04-16T11:58:03.220Z,42.36
2019-04-16T12:00:15.356Z,42.78
2019-04-16T12:02:23.689Z,44.30
2019-04-16T12:04:30.199Z,46.79
2019-04-16T12:06:47.789Z,47.78
2019-04-16T12:09:12.251Z,46.04
2019-04-16T12:11:26.806Z,46.39
2019-04-16T12:13:41.734Z,45.36
2019-04-16T12:16:02.280Z,45.14
2019-04-16T12:18:22.981Z,45.77
2019-04-16T12:20:44.644Z,46.18
2019-04-16T12:22:56.981Z,46.54
2019-04-16T12:25:08.973Z,47.45
2019-04-16T12:27:17.240Z,47.62
2019-04-16T12:29:31.635Z,48.29
2019-04-16T12:31:49.176Z,49.13
2019-04-16T12:34:13.744Z,49.88
2019-04-16T12:36:38.340Z,50.94
2019-04-16T12:38:58.694Z,51.97
2019-04-16T12:41:20.446Z,54.34
2019-04-16T12:43:35.591Z,55.83
2019-04-16T12:45:53.552Z,56.78
2019-04-16T12:48:02.145Z,57.36
2019-04-16T12:50:17.451Z,59.03
2019-04-16T12:52:43.140Z,59.22
2019-04-16T12:54:58.349Z,60.40
2019-04-16T12:57:20.989Z,61.42
2019-04-16T12:59:29.374Z,61.20
2019-04-16T13:01:50.105Z,61.33
2019-04-16T13:04:01.567Z,61.69
2019-04-16T13:06:07.982Z,61.91
2019-04-16T13:08:17.135Z,63.60
2019-04-16T13:10:24.632Z,64.01
2019-04-16T13:12:32.835Z,64.78
2019-04-16T13:15:01.033Z,65.62
2019-04-16T13:17:09.856Z,65.17
2019-04-16T13:19:34.455Z,65.78
2019-04-16T13:21:43.766Z,66.72
2019-04-16T13:23:54.821Z,66.96
2019-04-16T13:26:11.893Z,66.74
2019-04-16T13:28:15.770Z,67.47
2019-04-16T13:30:22.468Z,68.06
2019-04-16T13:32:29.077Z,69.46
2019-04-16T13:34:35.736Z,69.77
2019-04-16T13:36:42.366Z,70.09
2019-04-16T13:38:51.899Z,70.91
2019-04-16T13:41:01.690Z,70.65
2019-04-16T13:43:08.457Z,70.44
2019-04-16T13:45:25.619Z,69.16
2019-04-16T13:47:27.895Z,70.17
2019-04-16T13:49:38.911Z,70.78
2019-04-16T13:51:47.806Z,70.52
2019-04-16T13:54:13.846Z,70.56
2019-04-16T13:56:27.858Z,70.51
2019-04-16T13:58:38.748Z,71.12
2019-04-16T14:00:47.061Z,71.25
2019-04-16T14:02:55.384Z,71.28
2019-04-16T14:05:04.276Z,71.58
2019-04-16T14:07:10.423Z,72.50
2019-04-16T14:09:17.113Z,72.25
2019-04-16T14:11:23.790Z,72.45
2019-04-16T14:13:30.459Z,72.56
2019-04-16T14:15:40.369Z,71.60
2019-04-16T14:17:52.793Z,71.78
2019-04-16T14:19:54.255Z,71.32
2019-04-16T14:22:01.056Z,71.68
2019-04-16T14:24:07.742Z,72.17
2019-04-16T14:26:14.399Z,71.77
2019-04-16T14:28:21.597Z,71.61
2019-04-16T14:30:29.908Z,71.88
2019-04-16T14:32:36.609Z,71.23
2019-04-16T14:34:44.879Z,71.58
2019-04-16T14:36:53.114Z,71.57
2019-04-16T14:39:06.825Z,71.09
2019-04-16T14:41:15.917Z,71.68
2019-04-16T14:43:22.797Z,71.68
2019-04-16T14:45:56.613Z,70.87
2019-04-16T14:47:48.444Z,70.73
2019-04-16T14:49:55.106Z,71.21
2019-04-16T14:52:03.321Z,71.54
2019-04-16T14:54:27.959Z,72.10
2019-04-16T14:56:36.364Z,72.23
2019-04-16T14:58:46.194Z,70.05
2019-04-16T15:00:55.913Z,71.79
2019-04-16T15:03:04.218Z,71.58
2019-04-16T15:05:28.806Z,72.14
2019-04-16T15:07:37.086Z,72.25
2019-04-16T15:09:48.330Z,70.99
2019-04-16T15:12:11.975Z,71.85
2019-04-16T15:14:20.372Z,71.50
2019-04-16T15:16:31.331Z,71.08
2019-04-16T15:18:56.023Z,71.91
2019-04-16T15:21:16.380Z,70.71
2019-04-16T15:23:41.038Z,70.82
2019-04-16T15:25:47.482Z,71.34
2019-04-16T15:27:59.917Z,71.11
2019-04-16T15:30:28.562Z,71.70
2019-04-16T15:32:41.704Z,70.86
2019-04-16T15:34:50.566Z,71.41
2019-04-16T15:37:08.063Z,72.45
2019-04-16T15:39:16.392Z,72.05
2019-04-16T15:41:24.734Z,71.88
2019-04-16T15:43:34.163Z,71.57
2019-04-16T15:45:59.016Z,72.12
2019-04-16T15:48:14.834Z,72.41
2019-04-16T15:50:22.483Z,72.32
2019-04-16T15:52:46.043Z,71.49
2019-04-16T15:55:09.094Z,71.53
2019-04-16T15:57:18.499Z,71.22
2019-04-16T15:59:35.947Z,71.00
2019-04-16T16:01:56.798Z,70.96
2019-04-16T16:04:14.072Z,70.00
2019-04-16T16:06:25.168Z,70.15
2019-04-16T16:08:48.815Z,70.33
2019-04-16T16:10:58.231Z,70.30
2019-04-16T16:13:05.001Z,70.57
2019-04-16T16:15:12.001Z,69.93
2019-04-16T16:17:19.450Z,70.08
2019-04-16T16:19:27.113Z,70.17
2019-04-16T16:21:33.896Z,70.01
2019-04-16T16:23:40.566Z,70.14
2019-04-16T16:25:50.347Z,68.46
2019-04-16T16:27:57.056Z,68.92
2019-04-16T16:30:03.994Z,68.48
2019-04-16T16:32:11.890Z,69.00
2019-04-16T16:34:18.658Z,69.30
2019-04-16T16:36:25.288Z,68.61
2019-04-16T16:38:31.969Z,68.58
2019-04-16T16:40:38.597Z,68.38
2019-04-16T16:42:45.273Z,69.24
2019-04-16T16:44:51.947Z,69.39
2019-04-16T16:47:03.257Z,69.52
2019-04-16T16:49:09.967Z,69.45
2019-04-16T16:51:16.704Z,69.53
2019-04-16T16:53:41.225Z,69.96
2019-04-16T16:55:49.598Z,69.80
2019-04-16T16:58:17.976Z,70.52
2019-04-16T17:00:29.100Z,70.09
2019-04-16T17:02:38.378Z,70.25
2019-04-16T17:04:46.691Z,70.23
2019-04-16T17:06:53.383Z,70.63
2019-04-16T17:09:00.154Z,70.85
2019-04-16T17:11:16.758Z,70.90
2019-04-16T17:13:20.822Z,71.07
2019-04-16T17:15:25.335Z,71.33
2019-04-16T17:17:31.995Z,71.35
2019-04-16T17:19:38.701Z,71.66
2019-04-16T17:21:45.372Z,72.13
2019-04-16T17:23:52.047Z,73.04
2019-04-16T17:25:59.055Z,73.13
2019-04-16T17:28:05.852Z,73.44
2019-04-16T17:30:15.881Z,73.69
2019-04-16T17:32:23.051Z,73.82
2019-04-16T17:34:29.724Z,73.85
2019-04-16T17:36:36.408Z,73.97
2019-04-16T17:38:43.131Z,74.46
2019-04-16T17:41:00.071Z,74.67
2019-04-16T17:43:13.928Z,75.06
2019-04-16T17:45:26.750Z,75.37
2019-04-16T17:47:51.213Z,75.64
2019-04-16T17:50:02.478Z,76.19
2019-04-16T17:52:09.576Z,76.32
2019-04-16T17:54:37.748Z,76.91
2019-04-16T17:56:54.638Z,77.37
2019-04-16T17:59:03.648Z,76.46
2019-04-16T18:01:23.860Z,77.17
2019-04-16T18:03:38.653Z,77.41
2019-04-16T18:05:59.237Z,77.38
2019-04-16T18:08:09.340Z,77.22
2019-04-16T18:10:15.750Z,76.76
2019-04-16T18:12:39.259Z,76.81
2019-04-16T18:14:59.887Z,76.96
2019-04-16T18:17:27.603Z,76.71
2019-04-16T18:19:52.708Z,76.65
2019-04-16T18:22:11.177Z,76.51
2019-04-16T18:24:17.609Z,76.48
2019-04-16T18:26:36.223Z,76.77
2019-04-16T18:28:50.738Z,76.31
2019-04-16T18:30:59.323Z,76.51
2019-04-16T18:33:08.911Z,76.51
2019-04-16T18:35:24.501Z,76.67
2019-04-16T18:37:32.806Z,77.02
2019-04-16T18:39:45.184Z,77.44
2019-04-16T18:41:56.240Z,77.18
2019-04-16T18:44:11.762Z,76.90
2019-04-16T18:46:30.212Z,77.20
2019-04-16T18:48:44.301Z,76.99
2019-04-16T18:50:47.645Z,77.13
2019-04-16T18:52:55.823Z,77.12
2019-04-16T18:55:02.811Z,77.46
2019-04-16T18:57:10.791Z,77.79
2019-04-16T18:59:18.610Z,77.63
2019-04-16T19:01:32.655Z,77.45
2019-04-16T19:03:38.938Z,77.59
2019-04-16T19:05:45.699Z,78.07
2019-04-16T19:07:52.538Z,78.19
2019-04-16T19:09:59.221Z,78.29
2019-04-16T19:12:05.932Z,78.49
2019-04-16T19:14:13.862Z,78.04
2019-04-16T19:16:20.953Z,77.53
2019-04-16T19:18:27.694Z,77.37
2019-04-16T19:20:34.381Z,76.95
2019-04-16T19:22:41.067Z,76.72
2019-04-16T19:24:47.919Z,76.48
2019-04-16T19:26:54.586Z,76.48
2019-04-16T19:29:01.252Z,77.08
2019-04-16T19:31:09.717Z,76.73
2019-04-16T19:33:16.417Z,76.94
2019-04-16T19:35:23.181Z,76.99
2019-04-16T19:37:33.157Z,77.27
2019-04-16T19:39:39.639Z,76.58
2019-04-16T19:41:48.118Z,76.48
2019-04-16T19:43:54.989Z,76.33
2019-04-16T19:46:07.879Z,76.35
2019-04-16T19:48:17.693Z,76.52
2019-04-16T19:50:33.269Z,76.42
2019-04-16T19:52:38.958Z,76.38
2019-04-16T19:54:46.799Z,76.56
2019-04-16T19:56:57.685Z,76.45
2019-04-16T19:59:06.228Z,76.35
2019-04-16T20:01:14.612Z,76.47
2019-04-16T20:03:30.165Z,76.26
2019-04-16T20:05:34.986Z,76.21
2019-04-16T20:07:41.831Z,76.06
2019-04-16T20:09:48.821Z,75.82
2019-04-16T20:11:57.614Z,75.88
2019-04-16T20:14:06.620Z,75.60
2019-04-16T20:16:15.345Z,75.52
2019-04-16T20:18:24.981Z,75.47
2019-04-16T20:20:32.577Z,75.39
2019-04-16T20:22:39.349Z,75.30
2019-04-16T20:24:47.910Z,75.25
2019-04-16T20:26:55.059Z,75.23
2019-04-16T20:29:01.928Z,75.24
2019-04-16T20:31:08.981Z,75.32
2019-04-16T20:33:16.794Z,75.26
2019-04-16T20:35:25.039Z,75.13
2019-04-16T20:37:32.112Z,75.32
2019-04-16T20:39:40.748Z,75.34
2019-04-16T20:41:52.746Z,75.25
2019-04-16T20:43:59.449Z,75.17
2019-04-16T20:46:06.474Z,74.72
2019-04-16T20:48:13.295Z,74.86
2019-04-16T20:50:21.637Z,74.97
2019-04-16T20:52:30.861Z,74.89
2019-04-16T20:54:37.676Z,74.60
2019-04-16T20:56:49.891Z,74.76
2019-04-16T20:59:03.481Z,74.63
2019-04-16T21:01:07.456Z,74.18
2019-04-16T21:03:22.434Z,74.00
2019-04-16T21:05:28.978Z,74.14
2019-04-16T21:07:36.149Z,73.47
2019-04-16T21:09:44.933Z,73.52
2019-04-16T21:11:52.817Z,73.18
2019-04-16T21:14:01.440Z,72.90
2019-04-16T21:16:08.165Z,72.56
2019-04-16T21:18:16.735Z,72.65
2019-04-16T21:20:24.513Z,72.45
2019-04-16T21:22:31.254Z,72.65
2019-04-16T21:24:39.367Z,72.17
2019-04-16T21:26:50.982Z,72.07
2019-04-16T21:29:14.611Z,71.68
2019-04-16T21:31:38.420Z,71.10
2019-04-16T21:34:03.004Z,70.91
2019-04-16T21:36:25.112Z,70.44
2019-04-16T21:38:34.551Z,70.00
2019-04-16T21:40:41.274Z,69.79
2019-04-16T21:42:48.010Z,69.85
2019-04-16T21:44:54.681Z,69.85
2019-04-16T21:47:01.463Z,69.39
2019-04-16T21:49:08.951Z,69.20
2019-04-16T21:51:18.997Z,68.88
2019-04-16T21:53:24.632Z,68.82
2019-04-16T21:55:32.757Z,69.06
2019-04-16T21:57:42.774Z,69.04
2019-04-16T21:59:50.369Z,69.12
2019-04-16T22:01:57.905Z,68.60
2019-04-16T22:04:06.868Z,68.62
2019-04-16T22:06:13.636Z,68.45
2019-04-16T22:08:20.301Z,68.48
2019-04-16T22:10:26.989Z,68.55
2019-04-16T22:12:33.763Z,68.60
2019-04-16T22:14:40.436Z,68.26
2019-04-16T22:16:47.123Z,68.03
2019-04-16T22:18:53.835Z,67.61
2019-04-16T22:21:00.578Z,67.49
2019-04-16T22:23:07.253Z,67.40
2019-04-16T22:25:14.019Z,67.30
2019-04-16T22:27:20.715Z,66.82
2019-04-16T22:29:27.407Z,66.63
2019-04-16T22:31:34.178Z,66.13
2019-04-16T22:33:40.845Z,66.14
2019-04-16T22:35:47.507Z,66.29
2019-04-16T22:37:54.228Z,65.41
2019-04-16T22:40:22.522Z,65.36
2019-04-16T22:42:30.603Z,65.78
2019-04-16T22:44:56.466Z,65.11
2019-04-16T22:47:06.879Z,65.00
2019-04-16T22:49:13.622Z,64.76
2019-04-16T22:51:20.312Z,64.78
2019-04-16T22:53:27.124Z,64.75
2019-04-16T22:55:33.797Z,63.75
2019-04-16T22:57:40.514Z,63.58
2019-04-16T22:59:47.191Z,63.67
2019-04-16T23:01:53.937Z,62.83
2019-04-16T23:04:00.704Z,62.88
2019-04-16T23:06:08.185Z,62.69
2019-04-16T23:08:14.983Z,62.91
2019-04-16T23:10:21.911Z,62.10
2019-04-16T23:12:29.677Z,62.36
2019-04-16T23:14:36.406Z,62.08
2019-04-16T23:16:43.172Z,61.83
2019-04-16T23:18:50.104Z,61.59
2019-04-16T23:20:57.302Z,61.41
2019-04-16T23:23:04.234Z,61.48
2019-04-16T23:25:11.152Z,60.51
2019-04-16T23:27:17.822Z,60.90
2019-04-16T23:29:24.467Z,60.82
2019-04-16T23:31:32.323Z,60.78
2019-04-16T23:33:39.295Z,60.66
2019-04-16T23:35:46.577Z,60.55
2019-04-16T23:37:58.304Z,60.69
2019-04-16T23:40:01.652Z,61.11
2019-04-16T23:42:08.324Z,60.62
2019-04-16T23:44:27.320Z,60.97
2019-04-16T23:46:51.964Z,60.49
2019-04-16T23:49:00.311Z,61.14
2019-04-16T23:51:09.423Z,60.91
2019-04-16T23:53:17.737Z,60.94
2019-04-16T23:55:42.145Z,61.44
2019-04-16T23:57:50.457Z,61.27
